sensor_id;sensor_type;location;lat;lon;timestamp;pressure;altitude;pressure_sealevel;temperature;humidity
29825;BME280;16713;52.916;12.834;2023-03-24T00:00:01;99804.63;;;8.87;90.01
29825;BME280;16713;52.916;12.834;2023-03-24T00:02:30;99793.88;;;8.75;89.92
29825;BME280;16713;52.916;12.834;2023-03-24T00:05:04;99790.22;;;8.68;89.96
29825;BME280;16713;52.916;12.834;2023-03-24T00:07:31;99788.34;;;8.72;89.54
29825;BME280;16713;52.916;12.834;2023-03-24T00:10:00;99783.47;;;8.62;89.70
29825;BME280;16713;52.916;12.834;2023-03-24T00:12:27;99772.19;;;8.63;89.90
29825;BME280;16713;52.916;12.834;2023-03-24T00:14:54;99778.00;;;8.62;90.60
29825;BME280;16713;52.916;12.834;2023-03-24T00:17:20;99768.59;;;8.59;89.73
29825;BME280;16713;52.916;12.834;2023-03-24T00:19:51;99776.38;;;8.57;89.21
29825;BME280;16713;52.916;12.834;2023-03-24T00:22:17;99766.94;;;8.55;90.07
29825;BME280;16713;52.916;12.834;2023-03-24T00:24:46;99774.31;;;8.51;89.60
29825;BME280;16713;52.916;12.834;2023-03-24T00:27:14;99768.41;;;8.49;90.30
29825;BME280;16713;52.916;12.834;2023-03-24T00:29:43;99764.56;;;8.53;88.89
29825;BME280;16713;52.916;12.834;2023-03-24T00:32:09;99758.03;;;8.58;91.09
29825;BME280;16713;52.916;12.834;2023-03-24T00:34:36;99765.16;;;8.62;90.30
29825;BME280;16713;52.916;12.834;2023-03-24T00:37:04;99761.38;;;8.70;90.88
29825;BME280;16713;52.916;12.834;2023-03-24T00:39:32;99761.00;;;8.72;90.95
29825;BME280;16713;52.916;12.834;2023-03-24T00:41:58;99756.34;;;8.72;89.86
29825;BME280;16713;52.916;12.834;2023-03-24T00:44:27;99755.59;;;8.75;90.02
29825;BME280;16713;52.916;12.834;2023-03-24T00:46:53;99762.34;;;8.81;88.54
29825;BME280;16713;52.916;12.834;2023-03-24T00:49:28;99761.09;;;8.79;88.85
29825;BME280;16713;52.916;12.834;2023-03-24T00:52:19;99757.34;;;8.87;89.19
29825;BME280;16713;52.916;12.834;2023-03-24T00:54:50;99760.13;;;8.90;88.86
29825;BME280;16713;52.916;12.834;2023-03-24T00:57:17;99750.59;;;8.81;88.07
29825;BME280;16713;52.916;12.834;2023-03-24T00:59:48;99755.47;;;8.91;88.67
29825;BME280;16713;52.916;12.834;2023-03-24T01:02:16;99748.06;;;8.91;88.44
29825;BME280;16713;52.916;12.834;2023-03-24T01:04:44;99738.63;;;8.89;87.44
29825;BME280;16713;52.916;12.834;2023-03-24T01:07:13;99739.44;;;8.89;88.30
29825;BME280;16713;52.916;12.834;2023-03-24T01:09:45;99730.78;;;8.87;89.02
29825;BME280;16713;52.916;12.834;2023-03-24T01:12:32;99733.09;;;8.85;87.96
29825;BME280;16713;52.916;12.834;2023-03-24T01:15:00;99721.41;;;8.85;89.13
29825;BME280;16713;52.916;12.834;2023-03-24T01:17:28;99711.22;;;8.85;87.67
29825;BME280;16713;52.916;12.834;2023-03-24T01:19:55;99710.81;;;8.83;87.74
29825;BME280;16713;52.916;12.834;2023-03-24T01:22:29;99701.81;;;8.83;88.45
29825;BME280;16713;52.916;12.834;2023-03-24T01:24:56;99708.09;;;8.83;87.59
29825;BME280;16713;52.916;12.834;2023-03-24T01:27:22;99694.72;;;8.78;88.40
29825;BME280;16713;52.916;12.834;2023-03-24T01:29:49;99686.59;;;8.82;88.57
29825;BME280;16713;52.916;12.834;2023-03-24T01:32:15;99694.78;;;8.82;87.12
29825;BME280;16713;52.916;12.834;2023-03-24T01:34:42;99692.44;;;8.80;86.88
29825;BME280;16713;52.916;12.834;2023-03-24T01:37:08;99688.53;;;8.81;88.52
29825;BME280;16713;52.916;12.834;2023-03-24T01:39:35;99680.25;;;8.78;87.29
29825;BME280;16713;52.916;12.834;2023-03-24T01:42:02;99675.59;;;8.78;86.71
29825;BME280;16713;52.916;12.834;2023-03-24T01:47:00;99667.81;;;8.80;87.99
29825;BME280;16713;52.916;12.834;2023-03-24T01:49:33;99664.28;;;8.80;86.63
29825;BME280;16713;52.916;12.834;2023-03-24T01:52:03;99659.28;;;8.85;86.26
29825;BME280;16713;52.916;12.834;2023-03-24T01:54:35;99652.91;;;8.78;87.81
29825;BME280;16713;52.916;12.834;2023-03-24T01:57:07;99648.31;;;8.82;87.62
29825;BME280;16713;52.916;12.834;2023-03-24T01:59:39;99648.75;;;8.87;87.86
29825;BME280;16713;52.916;12.834;2023-03-24T02:02:07;99641.72;;;8.86;88.09
29825;BME280;16713;52.916;12.834;2023-03-24T02:04:38;99640.06;;;8.78;87.06
29825;BME280;16713;52.916;12.834;2023-03-24T02:07:15;99623.03;;;8.88;86.45
29825;BME280;16713;52.916;12.834;2023-03-24T02:09:43;99611.19;;;8.81;86.99
29825;BME280;16713;52.916;12.834;2023-03-24T02:12:10;99607.44;;;8.92;87.66
29825;BME280;16713;52.916;12.834;2023-03-24T02:14:37;99604.97;;;8.84;87.10
29825;BME280;16713;52.916;12.834;2023-03-24T02:17:24;99613.41;;;8.72;88.06
29825;BME280;16713;52.916;12.834;2023-03-24T02:23:03;99594.69;;;8.74;89.55
29825;BME280;16713;52.916;12.834;2023-03-24T02:48:25;99566.59;;;8.77;87.57
29825;BME280;16713;52.916;12.834;2023-03-24T02:53:38;99559.06;;;8.96;88.08
29825;BME280;16713;52.916;12.834;2023-03-24T02:56:13;99563.09;;;9.06;88.37
29825;BME280;16713;52.916;12.834;2023-03-24T02:58:50;99555.06;;;8.90;87.06
29825;BME280;16713;52.916;12.834;2023-03-24T03:01:22;99561.06;;;9.03;86.72
29825;BME280;16713;52.916;12.834;2023-03-24T03:04:17;99556.06;;;9.08;86.80
29825;BME280;16713;52.916;12.834;2023-03-24T03:06:51;99554.47;;;9.04;86.83
29825;BME280;16713;52.916;12.834;2023-03-24T03:09:21;99550.56;;;9.05;86.96
29825;BME280;16713;52.916;12.834;2023-03-24T03:11:50;99548.13;;;8.96;86.65
29825;BME280;16713;52.916;12.834;2023-03-24T03:14:32;99548.19;;;9.03;87.06
29825;BME280;16713;52.916;12.834;2023-03-24T03:17:11;99549.75;;;9.01;86.99
29825;BME280;16713;52.916;12.834;2023-03-24T03:19:44;99534.91;;;9.02;88.60
29825;BME280;16713;52.916;12.834;2023-03-24T03:22:22;99535.38;;;9.07;87.13
29825;BME280;16713;52.916;12.834;2023-03-24T03:24:52;99533.72;;;9.03;87.15
29825;BME280;16713;52.916;12.834;2023-03-24T03:27:23;99516.97;;;9.04;87.59
29825;BME280;16713;52.916;12.834;2023-03-24T03:29:56;99519.38;;;9.13;88.49
29825;BME280;16713;52.916;12.834;2023-03-24T03:32:29;99518.25;;;9.14;87.55
29825;BME280;16713;52.916;12.834;2023-03-24T03:35:13;99509.19;;;9.10;88.73
29825;BME280;16713;52.916;12.834;2023-03-24T03:40:30;99503.63;;;9.03;89.72
29825;BME280;16713;52.916;12.834;2023-03-24T03:42:58;99493.16;;;9.08;88.33
29825;BME280;16713;52.916;12.834;2023-03-24T03:45:24;99493.13;;;9.05;88.94
29825;BME280;16713;52.916;12.834;2023-03-24T03:47:51;99486.91;;;9.08;89.44
29825;BME280;16713;52.916;12.834;2023-03-24T03:50:18;99488.78;;;9.00;88.78
29825;BME280;16713;52.916;12.834;2023-03-24T03:52:44;99485.75;;;9.09;88.87
29825;BME280;16713;52.916;12.834;2023-03-24T03:55:11;99480.28;;;9.09;88.75
29825;BME280;16713;52.916;12.834;2023-03-24T03:57:39;99477.94;;;9.07;89.16
29825;BME280;16713;52.916;12.834;2023-03-24T04:00:07;99482.28;;;9.12;89.07
29825;BME280;16713;52.916;12.834;2023-03-24T04:02:46;99475.59;;;9.09;90.25
29825;BME280;16713;52.916;12.834;2023-03-24T04:05:29;99466.66;;;9.16;88.56
29825;BME280;16713;52.916;12.834;2023-03-24T04:08:18;99455.66;;;9.09;89.86
29825;BME280;16713;52.916;12.834;2023-03-24T04:19:20;99435.34;;;9.10;88.66
29825;BME280;16713;52.916;12.834;2023-03-24T04:24:55;99426.72;;;9.08;90.42
29825;BME280;16713;52.916;12.834;2023-03-24T04:30:22;99434.97;;;9.11;89.10
29825;BME280;16713;52.916;12.834;2023-03-24T04:32:56;99416.53;;;9.05;89.90
29825;BME280;16713;52.916;12.834;2023-03-24T04:35:35;99425.63;;;9.12;90.54
29825;BME280;16713;52.916;12.834;2023-03-24T04:38:08;99422.06;;;9.08;90.26
29825;BME280;16713;52.916;12.834;2023-03-24T04:40:36;99414.59;;;9.05;90.40
29825;BME280;16713;52.916;12.834;2023-03-24T04:43:09;99410.25;;;9.01;90.11
29825;BME280;16713;52.916;12.834;2023-03-24T04:45:39;99407.59;;;9.08;89.51
29825;BME280;16713;52.916;12.834;2023-03-24T04:48:08;99407.56;;;9.04;91.00
29825;BME280;16713;52.916;12.834;2023-03-24T04:50:40;99395.88;;;9.07;90.47
29825;BME280;16713;52.916;12.834;2023-03-24T04:53:08;99391.16;;;9.08;90.77
29825;BME280;16713;52.916;12.834;2023-03-24T04:58:10;99393.16;;;9.11;91.55
29825;BME280;16713;52.916;12.834;2023-03-24T05:00:37;99381.88;;;9.16;90.85
29825;BME280;16713;52.916;12.834;2023-03-24T05:03:03;99383.03;;;9.15;90.84
29825;BME280;16713;52.916;12.834;2023-03-24T05:05:30;99381.50;;;9.17;90.62
29825;BME280;16713;52.916;12.834;2023-03-24T05:07:56;99386.69;;;9.26;90.16
29825;BME280;16713;52.916;12.834;2023-03-24T05:10:23;99365.94;;;9.22;90.49
29825;BME280;16713;52.916;12.834;2023-03-24T05:12:49;99375.81;;;9.33;89.16
29825;BME280;16713;52.916;12.834;2023-03-24T05:15:16;99373.47;;;9.32;90.64
29825;BME280;16713;52.916;12.834;2023-03-24T05:17:42;99362.91;;;9.34;89.87
29825;BME280;16713;52.916;12.834;2023-03-24T05:20:09;99364.91;;;9.37;89.81
29825;BME280;16713;52.916;12.834;2023-03-24T05:22:37;99363.34;;;9.39;89.37
29825;BME280;16713;52.916;12.834;2023-03-24T05:25:04;99360.16;;;9.30;89.75
29825;BME280;16713;52.916;12.834;2023-03-24T05:27:31;99356.31;;;9.42;89.62
29825;BME280;16713;52.916;12.834;2023-03-24T05:29:58;99363.69;;;9.34;90.49
29825;BME280;16713;52.916;12.834;2023-03-24T05:32:24;99359.09;;;9.45;90.45
29825;BME280;16713;52.916;12.834;2023-03-24T05:34:51;99360.25;;;9.44;89.85
29825;BME280;16713;52.916;12.834;2023-03-24T05:37:17;99360.69;;;9.50;89.66
29825;BME280;16713;52.916;12.834;2023-03-24T05:39:43;99346.97;;;9.43;88.75
29825;BME280;16713;52.916;12.834;2023-03-24T05:42:10;99354.81;;;9.51;89.66
29825;BME280;16713;52.916;12.834;2023-03-24T05:44:37;99360.28;;;9.51;89.59
29825;BME280;16713;52.916;12.834;2023-03-24T05:47:03;99355.69;;;9.59;89.71
29825;BME280;16713;52.916;12.834;2023-03-24T05:49:30;99352.56;;;9.60;88.44
29825;BME280;16713;52.916;12.834;2023-03-24T05:51:56;99351.03;;;9.66;89.65
29825;BME280;16713;52.916;12.834;2023-03-24T05:54:23;99347.88;;;9.61;88.37
29825;BME280;16713;52.916;12.834;2023-03-24T05:56:50;99342.41;;;9.64;88.60
29825;BME280;16713;52.916;12.834;2023-03-24T05:59:16;99329.22;;;9.77;87.92
29825;BME280;16713;52.916;12.834;2023-03-24T06:01:43;99318.59;;;9.68;87.93
29825;BME280;16713;52.916;12.834;2023-03-24T06:04:09;99314.66;;;9.69;89.40
29825;BME280;16713;52.916;12.834;2023-03-24T06:06:36;99317.44;;;9.73;89.24
29825;BME280;16713;52.916;12.834;2023-03-24T06:09:03;99325.59;;;9.62;89.48
29825;BME280;16713;52.916;12.834;2023-03-24T06:11:30;99331.47;;;9.68;88.89
29825;BME280;16713;52.916;12.834;2023-03-24T06:13:56;99317.06;;;9.78;89.23
29825;BME280;16713;52.916;12.834;2023-03-24T06:16:25;99308.06;;;9.77;88.22
29825;BME280;16713;52.916;12.834;2023-03-24T06:18:52;99306.91;;;9.75;88.61
29825;BME280;16713;52.916;12.834;2023-03-24T06:21:19;99309.66;;;9.82;88.21
29825;BME280;16713;52.916;12.834;2023-03-24T06:23:46;99302.25;;;9.86;87.87
29825;BME280;16713;52.916;12.834;2023-03-24T06:26:14;99298.34;;;9.90;88.88
29825;BME280;16713;52.916;12.834;2023-03-24T06:28:41;99298.81;;;10.03;87.28
29825;BME280;16713;52.916;12.834;2023-03-24T06:31:08;99303.13;;;10.07;87.36
29825;BME280;16713;52.916;12.834;2023-03-24T06:33:40;99301.53;;;10.03;88.13
29825;BME280;16713;52.916;12.834;2023-03-24T06:36:08;99300.38;;;10.04;87.97
29825;BME280;16713;52.916;12.834;2023-03-24T06:38:35;99295.66;;;10.04;87.42
29825;BME280;16713;52.916;12.834;2023-03-24T06:41:03;99296.13;;;10.17;87.33
29825;BME280;16713;52.916;12.834;2023-03-24T06:43:30;99298.47;;;10.15;88.19
29825;BME280;16713;52.916;12.834;2023-03-24T06:45:57;99287.53;;;10.25;87.04
29825;BME280;16713;52.916;12.834;2023-03-24T06:48:25;99296.53;;;10.22;87.43
29825;BME280;16713;52.916;12.834;2023-03-24T06:50:52;99288.72;;;10.28;87.72
29825;BME280;16713;52.916;12.834;2023-03-24T06:53:19;99285.63;;;10.40;87.84
29825;BME280;16713;52.916;12.834;2023-03-24T06:55:49;99290.38;;;10.46;87.73
29825;BME280;16713;52.916;12.834;2023-03-24T06:58:16;99282.53;;;10.55;87.60
29825;BME280;16713;52.916;12.834;2023-03-24T07:00:43;99278.28;;;10.65;88.00
29825;BME280;16713;52.916;12.834;2023-03-24T07:03:14;99293.56;;;10.73;87.55
29825;BME280;16713;52.916;12.834;2023-03-24T07:05:43;99288.06;;;10.77;87.72
29825;BME280;16713;52.916;12.834;2023-03-24T07:08:10;99290.44;;;10.75;87.35
29825;BME280;16713;52.916;12.834;2023-03-24T07:10:42;99283.38;;;10.81;87.22
29825;BME280;16713;52.916;12.834;2023-03-24T07:13:09;99284.19;;;10.81;86.90
29825;BME280;16713;52.916;12.834;2023-03-24T07:15:35;99270.06;;;10.90;86.79
29825;BME280;16713;52.916;12.834;2023-03-24T07:18:02;99269.25;;;10.93;87.07
29825;BME280;16713;52.916;12.834;2023-03-24T07:20:28;99265.34;;;10.83;87.48
29825;BME280;16713;52.916;12.834;2023-03-24T07:22:56;99252.78;;;10.72;87.57
29825;BME280;16713;52.916;12.834;2023-03-24T07:25:23;99262.59;;;10.73;87.68
29825;BME280;16713;52.916;12.834;2023-03-24T07:27:52;99270.44;;;10.78;87.61
29825;BME280;16713;52.916;12.834;2023-03-24T07:30:19;99273.59;;;10.87;87.59
29825;BME280;16713;52.916;12.834;2023-03-24T07:32:58;99270.81;;;10.80;87.59
29825;BME280;16713;52.916;12.834;2023-03-24T07:35:27;99273.56;;;10.73;87.92
29825;BME280;16713;52.916;12.834;2023-03-24T07:37:58;99269.66;;;10.74;87.75
29825;BME280;16713;52.916;12.834;2023-03-24T07:40:25;99269.25;;;10.79;88.10
29825;BME280;16713;52.916;12.834;2023-03-24T07:42:51;99275.53;;;10.76;88.24
29825;BME280;16713;52.916;12.834;2023-03-24T07:45:18;99264.19;;;10.77;87.74
29825;BME280;16713;52.916;12.834;2023-03-24T07:47:45;99273.56;;;10.73;88.07
29825;BME280;16713;52.916;12.834;2023-03-24T07:50:13;99275.91;;;10.71;88.13
29825;BME280;16713;52.916;12.834;2023-03-24T07:52:41;99270.44;;;10.78;88.33
29825;BME280;16713;52.916;12.834;2023-03-24T07:55:11;99270.44;;;10.74;87.71
29825;BME280;16713;52.916;12.834;2023-03-24T07:57:46;99274.34;;;10.66;87.97
29825;BME280;16713;52.916;12.834;2023-03-24T08:00:14;99261.81;;;10.69;88.03
29825;BME280;16713;52.916;12.834;2023-03-24T08:02:45;99265.34;;;10.66;87.73
29825;BME280;16713;52.916;12.834;2023-03-24T08:05:12;99266.91;;;10.67;88.25
29825;BME280;16713;52.916;12.834;2023-03-24T08:07:43;99261.81;;;10.65;88.16
29825;BME280;16713;52.916;12.834;2023-03-24T08:10:11;99271.22;;;10.57;88.49
29825;BME280;16713;52.916;12.834;2023-03-24T08:12:39;99260.63;;;10.52;88.43
29825;BME280;16713;52.916;12.834;2023-03-24T08:15:07;99270.81;;;10.62;88.43
29825;BME280;16713;52.916;12.834;2023-03-24T08:17:35;99262.97;;;10.61;88.59
29825;BME280;16713;52.916;12.834;2023-03-24T08:20:02;99248.88;;;10.62;88.74
29825;BME280;16713;52.916;12.834;2023-03-24T08:22:37;99259.84;;;10.69;88.78
29825;BME280;16713;52.916;12.834;2023-03-24T08:25:07;99254.78;;;10.75;88.42
29825;BME280;16713;52.916;12.834;2023-03-24T08:27:37;99265.75;;;10.75;88.48
29825;BME280;16713;52.916;12.834;2023-03-24T08:30:07;99261.03;;;10.82;88.29
29825;BME280;16713;52.916;12.834;2023-03-24T08:32:36;99263.38;;;10.98;87.83
29825;BME280;16713;52.916;12.834;2023-03-24T08:35:03;99265.72;;;10.96;87.69
29825;BME280;16713;52.916;12.834;2023-03-24T08:37:30;99271.63;;;11.05;87.27
29825;BME280;16713;52.916;12.834;2023-03-24T08:39:57;99277.09;;;11.12;87.30
29825;BME280;16713;52.916;12.834;2023-03-24T08:42:24;99268.50;;;11.10;86.81
29825;BME280;16713;52.916;12.834;2023-03-24T08:44:51;99265.34;;;11.08;87.81
29825;BME280;16713;52.916;12.834;2023-03-24T08:47:18;99262.19;;;11.27;86.92
29825;BME280;16713;52.916;12.834;2023-03-24T08:49:44;99256.69;;;11.41;87.23
29825;BME280;16713;52.916;12.834;2023-03-24T08:52:11;99267.66;;;11.41;86.68
29825;BME280;16713;52.916;12.834;2023-03-24T08:54:37;99272.38;;;11.33;86.24
29825;BME280;16713;52.916;12.834;2023-03-24T08:57:04;99269.63;;;11.30;86.46
29825;BME280;16713;52.916;12.834;2023-03-24T08:59:31;99276.31;;;11.32;86.12
29825;BME280;16713;52.916;12.834;2023-03-24T09:01:57;99289.28;;;11.21;86.17
29825;BME280;16713;52.916;12.834;2023-03-24T09:04:24;99281.81;;;11.25;86.29
29825;BME280;16713;52.916;12.834;2023-03-24T09:06:50;99297.06;;;11.44;86.02
29825;BME280;16713;52.916;12.834;2023-03-24T09:09:18;99293.94;;;11.38;86.48
29825;BME280;16713;52.916;12.834;2023-03-24T09:11:45;99309.22;;;11.43;86.38
29825;BME280;16713;52.916;12.834;2023-03-24T09:14:11;99298.25;;;11.46;86.95
29825;BME280;16713;52.916;12.834;2023-03-24T09:16:38;99307.69;;;11.42;87.27
29825;BME280;16713;52.916;12.834;2023-03-24T09:19:05;99310.03;;;11.36;88.19
29825;BME280;16713;52.916;12.834;2023-03-24T09:21:32;99308.06;;;11.40;87.76
29825;BME280;16713;52.916;12.834;2023-03-24T09:23:59;99318.22;;;11.54;87.69
29825;BME280;16713;52.916;12.834;2023-03-24T09:26:26;99314.34;;;11.37;88.09
29825;BME280;16713;52.916;12.834;2023-03-24T09:28:52;99316.28;;;11.44;88.15
29825;BME280;16713;52.916;12.834;2023-03-24T09:31:19;99317.47;;;11.46;87.45
29825;BME280;16713;52.916;12.834;2023-03-24T09:33:45;99321.00;;;11.61;86.96
29825;BME280;16713;52.916;12.834;2023-03-24T09:36:12;99311.97;;;11.60;85.49
29825;BME280;16713;52.916;12.834;2023-03-24T09:38:38;99333.91;;;11.78;85.31
29825;BME280;16713;52.916;12.834;2023-03-24T09:41:16;99343.75;;;11.72;85.38
29825;BME280;16713;52.916;12.834;2023-03-24T09:46:14;99332.00;;;11.47;85.05
29825;BME280;16713;52.916;12.834;2023-03-24T09:48:50;99345.34;;;11.66;85.02
29825;BME280;16713;52.916;12.834;2023-03-24T09:56:28;99350.03;;;11.69;83.45
29825;BME280;16713;52.916;12.834;2023-03-24T09:59:02;99355.88;;;11.78;82.85
29825;BME280;16713;52.916;12.834;2023-03-24T10:01:30;99357.84;;;11.84;82.81
29825;BME280;16713;52.916;12.834;2023-03-24T10:03:57;99358.63;;;11.85;83.27
29825;BME280;16713;52.916;12.834;2023-03-24T10:06:30;99359.00;;;12.01;81.95
29825;BME280;16713;52.916;12.834;2023-03-24T10:09:30;99352.69;;;12.11;81.48
29825;BME280;16713;52.916;12.834;2023-03-24T10:14:46;99343.56;;;12.35;80.25
29825;BME280;16713;52.916;12.834;2023-03-24T10:17:23;99361.94;;;12.49;80.40
29825;BME280;16713;52.916;12.834;2023-03-24T10:19:55;99357.97;;;12.67;80.44
29825;BME280;16713;52.916;12.834;2023-03-24T10:22:34;99371.31;;;12.69;79.90
29825;BME280;16713;52.916;12.834;2023-03-24T10:27:39;99387.78;;;12.76;77.55
29825;BME280;16713;52.916;12.834;2023-03-24T10:30:43;99373.56;;;12.84;78.23
29825;BME280;16713;52.916;12.834;2023-03-24T10:33:14;99377.88;;;12.85;77.94
29825;BME280;16713;52.916;12.834;2023-03-24T10:36:04;99375.94;;;12.86;75.73
29825;BME280;16713;52.916;12.834;2023-03-24T10:38:33;99382.53;;;13.02;76.76
29825;BME280;16713;52.916;12.834;2023-03-24T10:41:00;99381.88;;;12.77;76.05
29825;BME280;16713;52.916;12.834;2023-03-24T10:43:28;99373.84;;;13.07;75.55
29825;BME280;16713;52.916;12.834;2023-03-24T10:45:57;99390.22;;;13.25;74.04
29825;BME280;16713;52.916;12.834;2023-03-24T10:48:46;99376.09;;;13.19;73.26
29825;BME280;16713;52.916;12.834;2023-03-24T10:51:24;99380.94;;;13.01;74.44
29825;BME280;16713;52.916;12.834;2023-03-24T10:56:44;99393.22;;;12.90;73.18
29825;BME280;16713;52.916;12.834;2023-03-24T10:59:28;99390.41;;;12.93;70.86
29825;BME280;16713;52.916;12.834;2023-03-24T11:04:37;99407.72;;;12.97;70.25
29825;BME280;16713;52.916;12.834;2023-03-24T11:09:42;99440.63;;;13.15;68.63
29825;BME280;16713;52.916;12.834;2023-03-24T11:12:20;99428.81;;;13.21;68.40
29825;BME280;16713;52.916;12.834;2023-03-24T11:14:47;99435.91;;;13.15;68.02
29825;BME280;16713;52.916;12.834;2023-03-24T11:17:15;99450.31;;;13.41;67.56
29825;BME280;16713;52.916;12.834;2023-03-24T11:19:55;99456.31;;;13.25;68.29
29825;BME280;16713;52.916;12.834;2023-03-24T11:22:22;99459.38;;;13.37;68.13
29825;BME280;16713;52.916;12.834;2023-03-24T11:24:53;99459.75;;;13.40;68.07
29825;BME280;16713;52.916;12.834;2023-03-24T11:27:20;99463.75;;;13.31;66.03
29825;BME280;16713;52.916;12.834;2023-03-24T11:29:57;99475.16;;;13.30;66.33
29825;BME280;16713;52.916;12.834;2023-03-24T11:32:25;99486.13;;;13.33;65.39
29825;BME280;16713;52.916;12.834;2023-03-24T11:35:07;99488.47;;;13.38;66.15
29825;BME280;16713;52.916;12.834;2023-03-24T11:37:38;99506.59;;;13.40;65.35
29825;BME280;16713;52.916;12.834;2023-03-24T11:42:44;99507.00;;;13.38;62.15
29825;BME280;16713;52.916;12.834;2023-03-24T11:45:41;99521.50;;;13.42;63.91
29825;BME280;16713;52.916;12.834;2023-03-24T11:48:26;99491.28;;;13.31;64.56
29825;BME280;16713;52.916;12.834;2023-03-24T11:50:56;99508.06;;;13.51;63.49
29825;BME280;16713;52.916;12.834;2023-03-24T11:53:29;99502.63;;;13.41;63.19
29825;BME280;16713;52.916;12.834;2023-03-24T11:56:16;99514.78;;;13.47;65.03
29825;BME280;16713;52.916;12.834;2023-03-24T11:58:49;99511.63;;;13.48;66.00
29825;BME280;16713;52.916;12.834;2023-03-24T12:04:23;99509.78;;;13.31;66.84
29825;BME280;16713;52.916;12.834;2023-03-24T12:12:28;99512.50;;;13.38;65.45
29825;BME280;16713;52.916;12.834;2023-03-24T12:18:18;99511.59;;;13.55;65.46
29825;BME280;16713;52.916;12.834;2023-03-24T12:26:28;99521.19;;;13.33;64.51
29825;BME280;16713;52.916;12.834;2023-03-24T12:45:51;99515.41;;;13.06;62.42
29825;BME280;16713;52.916;12.834;2023-03-24T12:55:20;99556.16;;;13.40;61.48
29825;BME280;16713;52.916;12.834;2023-03-24T12:57:56;99549.06;;;13.38;61.67
29825;BME280;16713;52.916;12.834;2023-03-24T13:00:30;99566.41;;;13.35;62.33
29825;BME280;16713;52.916;12.834;2023-03-24T13:03:05;99571.91;;;13.39;62.63
29825;BME280;16713;52.916;12.834;2023-03-24T13:05:49;99562.41;;;13.51;62.12
29825;BME280;16713;52.916;12.834;2023-03-24T13:08:22;99555.69;;;13.55;60.94
29825;BME280;16713;52.916;12.834;2023-03-24T13:11:03;99543.84;;;13.55;60.54
29825;BME280;16713;52.916;12.834;2023-03-24T13:13:37;99552.19;;;13.48;59.00
29825;BME280;16713;52.916;12.834;2023-03-24T13:16:07;99556.09;;;13.54;60.16
29825;BME280;16713;52.916;12.834;2023-03-24T13:21:14;99554.16;;;13.44;59.13
29825;BME280;16713;52.916;12.834;2023-03-24T13:31:17;99557.75;;;13.33;56.58
29825;BME280;16713;52.916;12.834;2023-03-24T13:33:46;99561.63;;;13.47;56.17
29825;BME280;16713;52.916;12.834;2023-03-24T13:39:18;99565.50;;;13.56;57.02
29825;BME280;16713;52.916;12.834;2023-03-24T13:41:50;99586.41;;;13.47;57.26
29825;BME280;16713;52.916;12.834;2023-03-24T13:44:22;99602.50;;;13.55;57.63
29825;BME280;16713;52.916;12.834;2023-03-24T13:47:13;99619.78;;;13.59;56.74
29825;BME280;16713;52.916;12.834;2023-03-24T13:50:03;99631.03;;;13.03;58.88
29825;BME280;16713;52.916;12.834;2023-03-24T13:52:35;99649.84;;;13.25;57.90
29825;BME280;16713;52.916;12.834;2023-03-24T13:55:06;99657.78;;;13.06;59.39
29825;BME280;16713;52.916;12.834;2023-03-24T13:57:40;99657.00;;;13.02;59.91
29825;BME280;16713;52.916;12.834;2023-03-24T14:08:12;99642.06;;;12.85;61.04
29825;BME280;16713;52.916;12.834;2023-03-24T14:10:49;99623.19;;;12.94;61.77
29825;BME280;16713;52.916;12.834;2023-03-24T14:15:56;99610.63;;;12.83;60.68
29825;BME280;16713;52.916;12.834;2023-03-24T14:23:41;99587.78;;;12.96;59.58
29825;BME280;16713;52.916;12.834;2023-03-24T14:26:30;99594.88;;;12.90;58.97
29825;BME280;16713;52.916;12.834;2023-03-24T14:28:59;99600.78;;;12.89;58.64
29825;BME280;16713;52.916;12.834;2023-03-24T14:31:32;99607.03;;;13.03;59.54
29825;BME280;16713;52.916;12.834;2023-03-24T14:34:14;99606.63;;;13.08;59.29
29825;BME280;16713;52.916;12.834;2023-03-24T14:36:46;99603.06;;;13.18;57.86
29825;BME280;16713;52.916;12.834;2023-03-24T14:41:49;99593.28;;;13.07;58.24
29825;BME280;16713;52.916;12.834;2023-03-24T14:47:33;99603.88;;;13.15;59.35
29825;BME280;16713;52.916;12.834;2023-03-24T14:50:17;99598.78;;;13.07;58.72
29825;BME280;16713;52.916;12.834;2023-03-24T14:52:57;99597.97;;;13.03;58.33
29825;BME280;16713;52.916;12.834;2023-03-24T14:55:24;99607.03;;;13.14;58.75
29825;BME280;16713;52.916;12.834;2023-03-24T14:57:54;99598.31;;;13.19;58.30
29825;BME280;16713;52.916;12.834;2023-03-24T15:00:39;99599.53;;;13.14;57.89
29825;BME280;16713;52.916;12.834;2023-03-24T15:03:30;99601.94;;;12.98;57.72
29825;BME280;16713;52.916;12.834;2023-03-24T15:06:14;99596.06;;;12.86;57.63
29825;BME280;16713;52.916;12.834;2023-03-24T15:08:55;99587.81;;;12.82;58.85
29825;BME280;16713;52.916;12.834;2023-03-24T15:11:29;99606.31;;;12.75;59.33
29825;BME280;16713;52.916;12.834;2023-03-24T15:13:58;99618.09;;;12.82;57.87
29825;BME280;16713;52.916;12.834;2023-03-24T15:16:30;99611.03;;;12.74;59.08
29825;BME280;16713;52.916;12.834;2023-03-24T15:19:00;99619.69;;;12.69;58.59
29825;BME280;16713;52.916;12.834;2023-03-24T15:21:36;99620.88;;;12.75;58.69
29825;BME280;16713;52.916;12.834;2023-03-24T15:24:26;99619.69;;;12.59;58.87
29825;BME280;16713;52.916;12.834;2023-03-24T15:29:36;99624.81;;;12.67;57.82
29825;BME280;16713;52.916;12.834;2023-03-24T15:32:04;99622.44;;;12.69;57.21
29825;BME280;16713;52.916;12.834;2023-03-24T15:34:44;99638.56;;;12.67;57.21
29825;BME280;16713;52.916;12.834;2023-03-24T15:37:23;99638.19;;;12.69;57.62
29825;BME280;16713;52.916;12.834;2023-03-24T15:39:53;99638.53;;;12.60;58.64
29825;BME280;16713;52.916;12.834;2023-03-24T15:42:40;99636.56;;;12.47;59.50
29825;BME280;16713;52.916;12.834;2023-03-24T15:45:12;99640.88;;;12.37;59.26
29825;BME280;16713;52.916;12.834;2023-03-24T15:47:44;99638.91;;;12.17;59.57